Time;durP1;ratioP1;P1;durP2;ratioP2;P2;SDS_P1;SDS_P2;PMS_P1;PMS_P2;Temp;Humidity;BMP_temperature;BMP_pressure;BME280_temperature;BME280_humidity;BME280_pressure;Samples;Min_cycle;Max_cycle;Signal;HPM_P1;HPM_P2
2020/12/08 00:00:13;;;;;;;1.70;1.43;;;3.40;98.20;;;;;;5056466;28;20506;-76
2020/12/08 00:02:40;;;;;;;1.60;1.40;;;3.40;98.20;;;;;;5042016;28;20463;-76
2020/12/08 00:05:06;;;;;;;1.60;1.40;;;3.40;98.20;;;;;;5050290;28;20467;-75
2020/12/08 00:07:33;;;;;;;1.70;1.50;;;3.40;98.20;;;;;;5050371;28;20503;-75
2020/12/08 00:09:59;;;;;;;1.67;1.50;;;3.30;98.20;;;;;;5051950;28;20466;-75
2020/12/08 00:12:27;;;;;;;1.87;1.77;;;3.30;98.20;;;;;;5058655;28;20467;-76
2020/12/08 00:14:54;;;;;;;1.67;1.43;;;3.30;98.20;;;;;;5054303;28;20462;-76
2020/12/08 00:17:21;;;;;;;1.70;1.50;;;3.30;98.20;;;;;;5050077;28;20490;-76
2020/12/08 00:19:48;;;;;;;1.70;1.60;;;3.20;98.20;;;;;;5051988;28;20612;-76
2020/12/08 00:22:14;;;;;;;1.70;1.50;;;3.20;98.20;;;;;;5048115;28;20860;-76
2020/12/08 00:24:41;;;;;;;1.60;1.40;;;3.20;98.20;;;;;;5051004;28;20514;-75
2020/12/08 00:27:08;;;;;;;1.60;1.50;;;3.20;98.20;;;;;;5049898;28;20494;-76
2020/12/08 00:29:36;;;;;;;1.70;1.50;;;3.10;98.20;;;;;;5057959;28;20555;-75
2020/12/08 00:32:03;;;;;;;1.70;1.50;;;3.10;98.20;;;;;;5055231;28;20455;-75
2020/12/08 00:34:29;;;;;;;1.70;1.60;;;3.10;98.20;;;;;;5051406;28;20490;-76
2020/12/08 00:36:56;;;;;;;1.70;1.60;;;3.10;98.20;;;;;;5051469;28;20541;-75
2020/12/08 00:39:22;;;;;;;1.70;1.40;;;3.10;98.20;;;;;;5046415;28;20965;-76
2020/12/08 00:41:49;;;;;;;1.60;1.37;;;3.20;98.20;;;;;;5054241;28;20490;-76
2020/12/08 00:44:16;;;;;;;1.83;1.73;;;3.10;98.20;;;;;;5062174;28;20462;-76
2020/12/08 00:46:47;;;;;;;1.80;1.70;;;3.10;98.20;;;;;;5052621;28;20518;-76
2020/12/08 00:49:14;;;;;;;1.70;1.50;;;3.10;98.20;;;;;;5048747;28;20802;-76
2020/12/08 00:51:40;;;;;;;1.77;1.67;;;3.10;98.20;;;;;;5043702;28;20491;-75
2020/12/08 00:54:07;;;;;;;1.70;1.50;;;3.10;98.20;;;;;;5048503;28;20455;-75
2020/12/08 00:56:33;;;;;;;1.70;1.60;;;3.10;98.20;;;;;;5047323;28;20518;-76
2020/12/08 00:58:59;;;;;;;1.70;1.50;;;3.00;98.20;;;;;;5059546;28;20450;-76
2020/12/08 01:01:27;;;;;;;1.70;1.60;;;3.00;98.20;;;;;;5059050;28;20940;-75
2020/12/08 01:03:54;;;;;;;1.70;1.60;;;3.00;98.20;;;;;;5048616;28;20471;-76
2020/12/08 01:06:21;;;;;;;1.70;1.60;;;3.00;98.20;;;;;;5049214;28;20484;-75
2020/12/08 01:08:47;;;;;;;1.73;1.63;;;3.00;98.20;;;;;;5049275;28;20459;-75
2020/12/08 01:11:14;;;;;;;1.70;1.50;;;3.00;98.20;;;;;;5048087;28;20468;-75
2020/12/08 01:13:40;;;;;;;1.60;1.40;;;3.00;98.20;;;;;;5049876;28;20458;-75
2020/12/08 01:16:07;;;;;;;1.63;1.40;;;3.10;98.20;;;;;;5048451;28;20483;-75
2020/12/08 01:18:33;;;;;;;1.60;1.40;;;3.10;98.20;;;;;;5045999;28;20721;-75
2020/12/08 01:21:01;;;;;;;1.70;1.60;;;3.10;98.20;;;;;;5043110;28;20981;-75
2020/12/08 01:23:27;;;;;;;1.80;1.70;;;3.10;98.20;;;;;;5048433;28;20467;-75
2020/12/08 01:25:53;;;;;;;1.70;1.53;;;3.10;98.20;;;;;;5053243;28;20516;-76
2020/12/08 01:28:20;;;;;;;1.60;1.50;;;3.10;98.20;;;;;;5046528;28;20455;-75
2020/12/08 01:30:48;;;;;;;1.73;1.63;;;3.10;98.20;;;;;;5046600;28;20463;-75
2020/12/08 01:33:14;;;;;;;1.67;1.40;;;3.10;98.20;;;;;;5053914;28;20460;-75
2020/12/08 01:35:41;;;;;;;1.60;1.40;;;3.10;98.20;;;;;;5038770;28;20534;-75
2020/12/08 01:38:08;;;;;;;1.67;1.50;;;3.10;98.20;;;;;;5037211;28;20530;-75
2020/12/08 01:40:34;;;;;;;1.70;1.50;;;3.20;98.20;;;;;;5050260;28;20962;-75
2020/12/08 01:43:01;;;;;;;1.67;1.40;;;3.20;98.20;;;;;;5051362;28;20500;-76
2020/12/08 01:45:27;;;;;;;1.70;1.50;;;3.20;98.20;;;;;;5043681;28;20466;-75
2020/12/08 01:47:54;;;;;;;1.63;1.40;;;3.20;98.20;;;;;;5046791;28;20458;-75
2020/12/08 01:50:21;;;;;;;1.67;1.40;;;3.20;98.20;;;;;;5046580;28;20466;-75
2020/12/08 01:52:48;;;;;;;1.70;1.53;;;3.20;98.20;;;;;;5049652;28;20742;-75
2020/12/08 01:55:15;;;;;;;1.60;1.40;;;3.20;98.20;;;;;;5047266;28;20491;-75
2020/12/08 01:57:42;;;;;;;1.60;1.40;;;3.20;98.20;;;;;;5047370;28;20484;-75
2020/12/08 02:00:09;;;;;;;1.60;1.40;;;3.20;98.20;;;;;;5056504;28;20455;-75
2020/12/08 02:02:36;;;;;;;1.70;1.50;;;3.20;98.20;;;;;;5057682;28;20463;-75
2020/12/08 02:05:02;;;;;;;1.67;1.40;;;3.20;98.20;;;;;;5052741;28;20875;-75
2020/12/08 02:07:29;;;;;;;1.70;1.50;;;3.20;98.20;;;;;;5050220;28;20524;-75
2020/12/08 02:09:55;;;;;;;1.60;1.40;;;3.30;98.20;;;;;;5047505;28;20463;-75
2020/12/08 02:12:23;;;;;;;1.70;1.40;;;3.20;98.20;;;;;;5047503;28;20475;-75
2020/12/08 02:14:49;;;;;;;1.70;1.50;;;3.20;98.20;;;;;;5043575;28;20472;-75
2020/12/08 02:17:16;;;;;;;1.60;1.40;;;3.20;98.20;;;;;;5049550;28;20865;-75
2020/12/08 02:19:44;;;;;;;1.63;1.50;;;3.20;98.20;;;;;;5042031;28;20459;-75
2020/12/08 02:22:12;;;;;;;1.60;1.50;;;3.20;98.20;;;;;;5047400;28;20477;-75
2020/12/08 02:24:38;;;;;;;1.60;1.40;;;3.10;98.20;;;;;;5045195;28;20523;-75
2020/12/08 02:27:05;;;;;;;1.70;1.50;;;3.10;98.20;;;;;;5046765;28;20892;-75
2020/12/08 02:29:32;;;;;;;1.67;1.50;;;3.10;98.20;;;;;;5058547;28;20451;-75
2020/12/08 02:31:58;;;;;;;1.63;1.47;;;3.10;98.20;;;;;;5047599;28;20467;-75
2020/12/08 02:34:25;;;;;;;1.70;1.50;;;3.10;98.20;;;;;;5048471;28;20748;-75
2020/12/08 02:36:58;;;;;;;1.67;1.50;;;3.10;98.20;;;;;;5047858;28;20505;-75
2020/12/08 02:39:26;;;;;;;1.70;1.50;;;3.10;98.20;;;;;;5039965;28;20541;-75
2020/12/08 02:41:52;;;;;;;1.70;1.50;;;3.10;98.20;;;;;;5046341;28;20858;-75
2020/12/08 02:44:19;;;;;;;1.77;1.67;;;3.10;98.20;;;;;;5050368;28;20467;-75
2020/12/08 02:46:49;;;;;;;1.63;1.50;;;3.10;98.20;;;;;;5040743;28;20479;-75
2020/12/08 02:49:18;;;;;;;1.60;1.50;;;3.10;98.20;;;;;;5058741;28;20471;-75
2020/12/08 02:51:44;;;;;;;1.70;1.60;;;3.20;98.20;;;;;;5049975;28;20908;-75
2020/12/08 02:54:11;;;;;;;1.60;1.30;;;3.20;98.20;;;;;;5047349;28;20464;-75
2020/12/08 02:56:38;;;;;;;1.80;1.70;;;3.20;98.20;;;;;;5038770;28;20510;-75
2020/12/08 02:59:04;;;;;;;1.60;1.40;;;3.20;98.20;;;;;;5043968;28;20462;-75
2020/12/08 03:01:31;;;;;;;3.60;3.40;;;3.20;98.20;;;;;;5062510;28;20477;-75
2020/12/08 03:03:57;;;;;;;1.63;1.50;;;3.20;98.20;;;;;;5054407;28;20471;-75
2020/12/08 03:06:23;;;;;;;1.67;1.50;;;3.30;98.20;;;;;;5044245;28;20521;-75
2020/12/08 03:08:50;;;;;;;1.60;1.50;;;3.30;98.20;;;;;;5044661;28;20983;-75
2020/12/08 03:11:16;;;;;;;1.70;1.50;;;3.30;98.20;;;;;;5041626;28;20455;-75
2020/12/08 03:13:44;;;;;;;1.70;1.60;;;3.30;98.20;;;;;;5047682;28;20509;-75
2020/12/08 03:16:10;;;;;;;1.60;1.40;;;3.30;98.20;;;;;;5045385;28;20545;-75
2020/12/08 03:18:41;;;;;;;1.70;1.53;;;3.40;98.20;;;;;;5045371;28;20518;-75
2020/12/08 03:21:07;;;;;;;1.60;1.40;;;3.40;98.20;;;;;;5038583;28;20498;-75
2020/12/08 03:23:34;;;;;;;1.60;1.40;;;3.40;98.20;;;;;;5052981;28;20463;-75
2020/12/08 03:26:00;;;;;;;1.70;1.60;;;3.40;98.20;;;;;;5044810;28;20480;-75
2020/12/08 03:28:26;;;;;;;1.60;1.40;;;3.40;98.20;;;;;;5047309;28;21025;-76
2020/12/08 03:30:54;;;;;;;1.60;1.50;;;3.50;98.20;;;;;;5054301;28;20517;-75
2020/12/08 03:33:20;;;;;;;1.70;1.50;;;3.50;98.20;;;;;;5050885;28;20503;-75
2020/12/08 03:35:46;;;;;;;1.77;1.67;;;3.50;98.20;;;;;;5047728;28;20479;-75
2020/12/08 03:38:13;;;;;;;1.60;1.50;;;3.50;98.20;;;;;;5051688;28;20525;-75
2020/12/08 03:40:39;;;;;;;1.60;1.40;;;3.50;98.20;;;;;;5050425;28;20487;-75
2020/12/08 03:43:06;;;;;;;1.60;1.40;;;3.50;98.20;;;;;;5050022;28;20482;-75
2020/12/08 03:45:33;;;;;;;1.63;1.40;;;3.50;98.20;;;;;;5052244;28;20541;-75
2020/12/08 03:48:00;;;;;;;1.80;1.70;;;3.60;98.20;;;;;;5055208;28;20546;-76
2020/12/08 03:50:26;;;;;;;1.63;1.37;;;3.60;98.20;;;;;;5047092;28;20464;-75
2020/12/08 03:52:55;;;;;;;1.60;1.40;;;3.60;98.20;;;;;;5044687;28;20879;-75
2020/12/08 03:55:22;;;;;;;1.60;1.40;;;3.60;98.20;;;;;;5043251;28;20483;-75
2020/12/08 03:57:48;;;;;;;1.60;1.50;;;3.60;98.20;;;;;;5041676;28;20480;-76
2020/12/08 04:00:14;;;;;;;1.60;1.40;;;3.60;98.20;;;;;;5056569;28;20474;-75
2020/12/08 04:02:41;;;;;;;1.60;1.30;;;3.60;98.20;;;;;;5052782;28;20827;-75
2020/12/08 04:05:08;;;;;;;1.60;1.30;;;3.60;98.20;;;;;;5046356;28;20462;-75
2020/12/08 04:07:34;;;;;;;1.73;1.63;;;3.60;98.20;;;;;;5044684;28;20496;-75
2020/12/08 04:10:01;;;;;;;1.60;1.40;;;3.70;98.20;;;;;;5050364;28;20482;-75
2020/12/08 04:12:27;;;;;;;1.60;1.40;;;3.70;98.20;;;;;;5049854;28;20469;-75
2020/12/08 04:14:54;;;;;;;1.60;1.40;;;3.70;98.20;;;;;;5043264;28;21019;-76
2020/12/08 04:17:20;;;;;;;1.60;1.30;;;3.70;98.20;;;;;;5046925;28;20503;-75
2020/12/08 04:19:47;;;;;;;1.60;1.40;;;3.70;98.20;;;;;;5050933;28;20454;-75
2020/12/08 04:22:14;;;;;;;1.63;1.50;;;3.70;98.20;;;;;;5048765;28;20807;-75
2020/12/08 04:24:41;;;;;;;1.60;1.40;;;3.80;98.20;;;;;;5047658;28;20479;-75
2020/12/08 04:27:07;;;;;;;1.70;1.50;;;3.80;98.20;;;;;;5040823;28;20551;-76
2020/12/08 04:29:33;;;;;;;1.70;1.50;;;3.80;98.20;;;;;;5054283;28;20463;-75
2020/12/08 04:32:00;;;;;;;1.60;1.40;;;3.80;98.20;;;;;;5054361;28;20891;-75
2020/12/08 04:34:26;;;;;;;1.70;1.50;;;3.70;98.20;;;;;;5051472;28;20991;-75
2020/12/08 04:36:53;;;;;;;1.70;1.50;;;3.70;98.20;;;;;;5049382;28;20483;-75
2020/12/08 04:39:20;;;;;;;1.80;1.70;;;3.70;98.20;;;;;;5049450;28;20490;-75
2020/12/08 04:41:46;;;;;;;1.60;1.43;;;3.80;98.20;;;;;;5045017;28;20459;-75
2020/12/08 04:44:13;;;;;;;1.60;1.40;;;3.70;98.20;;;;;;5040756;28;20478;-75
2020/12/08 04:46:40;;;;;;;1.70;1.40;;;3.80;98.20;;;;;;5048375;28;20504;-75
2020/12/08 04:49:07;;;;;;;1.70;1.60;;;3.80;98.20;;;;;;5049428;28;20550;-75
2020/12/08 04:51:39;;;;;;;1.70;1.50;;;3.80;98.20;;;;;;5051920;28;20458;-76
2020/12/08 04:54:06;;;;;;;1.63;1.40;;;3.80;98.20;;;;;;5053107;28;20463;-76
2020/12/08 04:56:34;;;;;;;1.60;1.40;;;3.80;98.20;;;;;;5045876;28;20487;-76
2020/12/08 04:59:01;;;;;;;1.60;1.40;;;3.80;98.20;;;;;;5050910;28;20511;-76
2020/12/08 05:01:28;;;;;;;1.60;1.40;;;3.80;98.20;;;;;;5055351;28;20510;-76
2020/12/08 05:03:59;;;;;;;1.60;1.50;;;3.80;98.20;;;;;;5041110;28;20477;-76
2020/12/08 05:06:26;;;;;;;1.60;1.40;;;3.80;98.20;;;;;;5043493;28;20691;-76
2020/12/08 05:09:04;;;;;;;1.60;1.40;;;3.80;98.20;;;;;;5045494;28;20452;-76
2020/12/08 05:11:31;;;;;;;1.70;1.53;;;3.80;98.20;;;;;;5048301;28;20524;-76
2020/12/08 05:14:00;;;;;;;1.70;1.50;;;3.90;98.20;;;;;;5045026;28;20452;-76
2020/12/08 05:16:26;;;;;;;1.60;1.40;;;3.90;98.20;;;;;;5042306;28;20476;-77
2020/12/08 05:18:53;;;;;;;1.60;1.40;;;3.90;98.20;;;;;;5053501;28;20858;-76
2020/12/08 05:21:19;;;;;;;1.60;1.40;;;3.90;98.20;;;;;;5049675;28;20468;-76
2020/12/08 05:23:46;;;;;;;1.60;1.40;;;3.90;98.20;;;;;;5048560;28;20451;-76
2020/12/08 05:26:14;;;;;;;1.60;1.40;;;3.90;98.20;;;;;;5042597;28;20940;-76
2020/12/08 05:28:41;;;;;;;1.60;1.40;;;3.90;98.20;;;;;;5053523;28;20528;-77
2020/12/08 05:31:10;;;;;;;1.60;1.50;;;3.90;98.20;;;;;;5048138;28;20464;-76
2020/12/08 05:33:38;;;;;;;1.60;1.40;;;3.90;98.20;;;;;;5044009;28;20483;-76
2020/12/08 05:36:06;;;;;;;1.60;1.50;;;4.00;98.20;;;;;;5038980;28;20476;-76
2020/12/08 05:38:35;;;;;;;1.70;1.50;;;4.00;98.20;;;;;;5038636;28;20570;-76
2020/12/08 05:41:03;;;;;;;1.60;1.47;;;4.00;98.20;;;;;;5050175;28;20478;-76
2020/12/08 05:43:36;;;;;;;1.63;1.50;;;4.00;98.20;;;;;;5045345;28;20909;-76
2020/12/08 05:46:04;;;;;;;1.63;1.50;;;4.00;98.20;;;;;;5043645;28;20494;-76
2020/12/08 05:48:32;;;;;;;1.70;1.60;;;4.00;98.20;;;;;;5044477;28;20467;-77
2020/12/08 05:51:01;;;;;;;1.63;1.43;;;4.00;98.20;;;;;;5045337;28;20471;-76
2020/12/08 05:53:28;;;;;;;1.60;1.30;;;4.00;98.20;;;;;;5041649;28;20468;-76
2020/12/08 05:56:04;;;;;;;1.60;1.50;;;4.00;98.20;;;;;;5034852;28;20483;-76
2020/12/08 05:58:30;;;;;;;1.70;1.60;;;4.10;98.20;;;;;;5045730;28;20526;-76
2020/12/08 06:01:01;;;;;;;1.60;1.40;;;4.10;98.20;;;;;;5058490;28;20506;-74
2020/12/08 06:03:27;;;;;;;1.60;1.37;;;4.10;98.20;;;;;;5040122;28;20503;-75
2020/12/08 06:06:06;;;;;;;1.67;1.30;;;4.10;98.20;;;;;;5048522;28;20497;-73
2020/12/08 06:08:41;;;;;;;1.60;1.43;;;4.10;98.20;;;;;;5040881;28;20490;-75
2020/12/08 06:11:08;;;;;;;1.60;1.40;;;4.10;98.20;;;;;;5044854;28;20478;-76
2020/12/08 06:13:35;;;;;;;1.60;1.50;;;4.20;98.20;;;;;;5036073;28;20486;-76
2020/12/08 06:16:15;;;;;;;1.60;1.40;;;4.20;98.20;;;;;;5039681;28;20482;-74
2020/12/08 06:18:41;;;;;;;1.80;1.70;;;4.20;98.20;;;;;;5040745;28;20555;-75
2020/12/08 06:21:20;;;;;;;1.60;1.30;;;4.20;98.20;;;;;;5053508;28;20495;-75
2020/12/08 06:23:48;;;;;;;1.63;1.40;;;4.20;98.20;;;;;;5047765;28;20463;-75
2020/12/08 06:26:21;;;;;;;1.60;1.40;;;4.20;98.20;;;;;;5042003;28;20563;-75
2020/12/08 06:28:48;;;;;;;1.60;1.40;;;4.30;98.20;;;;;;5046349;28;20477;-75
2020/12/08 06:31:14;;;;;;;1.60;1.30;;;4.30;98.20;;;;;;5043596;28;20463;-76
2020/12/08 06:33:48;;;;;;;1.70;1.50;;;4.30;98.20;;;;;;5045625;28;20471;-75
2020/12/08 06:36:15;;;;;;;1.60;1.30;;;4.30;98.20;;;;;;5038336;28;20475;-76
2020/12/08 06:38:42;;;;;;;1.67;1.47;;;4.30;98.20;;;;;;5033818;28;20491;-73
2020/12/08 06:41:09;;;;;;;1.70;1.50;;;4.30;98.20;;;;;;5054799;28;20464;-74
2020/12/08 06:43:42;;;;;;;1.70;1.60;;;4.30;98.20;;;;;;5051407;28;20495;-73
2020/12/08 06:46:11;;;;;;;1.60;1.30;;;4.30;98.20;;;;;;5036886;28;20490;-73
2020/12/08 06:48:39;;;;;;;1.60;1.40;;;4.30;98.20;;;;;;5044458;28;20484;-73
2020/12/08 06:51:15;;;;;;;1.60;1.40;;;4.30;98.20;;;;;;5041247;28;20459;-75
2020/12/08 06:53:43;;;;;;;1.60;1.40;;;4.40;98.20;;;;;;5036246;28;20571;-75
2020/12/08 06:56:09;;;;;;;1.60;1.33;;;4.40;98.20;;;;;;5037653;28;20562;-76
2020/12/08 06:58:46;;;;;;;1.63;1.50;;;4.30;98.20;;;;;;5051706;28;20523;-75
2020/12/08 07:01:13;;;;;;;1.67;1.50;;;4.40;98.20;;;;;;5050890;28;20522;-76
2020/12/08 07:03:39;;;;;;;1.60;1.40;;;4.40;98.20;;;;;;5036400;28;20510;-76
2020/12/08 07:06:06;;;;;;;1.67;1.40;;;4.40;98.20;;;;;;5038439;28;20487;-75
2020/12/08 07:08:32;;;;;;;1.63;1.50;;;4.40;98.20;;;;;;5044180;28;20573;-76
2020/12/08 07:11:00;;;;;;;1.70;1.57;;;4.40;98.20;;;;;;5033562;28;20920;-75
2020/12/08 07:13:26;;;;;;;1.60;1.40;;;4.40;98.20;;;;;;5041931;28;20482;-76
2020/12/08 07:15:53;;;;;;;1.60;1.40;;;4.40;98.20;;;;;;5032648;28;21224;-76
2020/12/08 07:18:19;;;;;;;1.60;1.40;;;4.40;98.20;;;;;;5038180;28;20582;-76
2020/12/08 07:20:46;;;;;;;1.60;1.40;;;4.40;98.20;;;;;;5038403;28;20519;-72
2020/12/08 07:23:13;;;;;;;1.60;1.43;;;4.40;98.20;;;;;;5039822;28;20534;-74
2020/12/08 07:25:40;;;;;;;1.60;1.40;;;4.40;98.20;;;;;;5040475;28;20542;-73
2020/12/08 07:28:08;;;;;;;1.60;1.40;;;4.40;98.20;;;;;;5037484;28;20460;-73
2020/12/08 07:30:34;;;;;;;1.60;1.40;;;4.40;98.20;;;;;;5042933;28;20471;-73
2020/12/08 07:33:11;;;;;;;1.60;1.40;;;4.40;98.20;;;;;;5044080;28;20510;-73
2020/12/08 07:35:38;;;;;;;1.60;1.40;;;4.40;98.20;;;;;;5045625;28;20508;-73
2020/12/08 07:38:04;;;;;;;1.60;1.40;;;4.40;98.20;;;;;;5053854;28;20810;-74
2020/12/08 07:40:32;;;;;;;1.80;1.70;;;4.40;98.20;;;;;;5042727;28;20473;-72
2020/12/08 07:42:58;;;;;;;1.60;1.40;;;4.40;98.20;;;;;;5047419;28;20462;-73
2020/12/08 07:45:26;;;;;;;1.67;1.43;;;4.50;98.20;;;;;;5056043;28;20968;-73
2020/12/08 07:47:54;;;;;;;1.60;1.43;;;4.40;98.20;;;;;;5045943;28;20499;-73
2020/12/08 07:50:25;;;;;;;1.60;1.40;;;4.40;98.20;;;;;;5045116;28;20502;-73
2020/12/08 07:52:59;;;;;;;1.60;1.40;;;4.40;98.20;;;;;;5041085;28;20466;-73
2020/12/08 07:55:26;;;;;;;1.60;1.30;;;4.40;98.20;;;;;;5041818;28;20471;-73
2020/12/08 07:57:53;;;;;;;1.60;1.40;;;4.40;98.20;;;;;;5043441;28;20561;-73
2020/12/08 08:00:19;;;;;;;1.80;1.70;;;4.50;98.20;;;;;;5054789;28;20490;-74
2020/12/08 08:02:46;;;;;;;1.60;1.30;;;4.40;98.20;;;;;;5040278;28;20455;-73
2020/12/08 08:05:13;;;;;;;1.60;1.43;;;4.50;98.20;;;;;;5042821;28;20983;-73
2020/12/08 08:07:40;;;;;;;1.70;1.53;;;4.50;98.20;;;;;;5048802;28;20454;-73
2020/12/08 08:10:06;;;;;;;1.60;1.50;;;4.50;98.20;;;;;;5047760;28;20905;-74
2020/12/08 08:12:33;;;;;;;2.33;2.13;;;4.50;98.20;;;;;;5045754;28;20463;-73
2020/12/08 08:14:59;;;;;;;1.70;1.60;;;4.50;98.20;;;;;;5041666;28;20490;-72
2020/12/08 08:17:26;;;;;;;1.63;1.40;;;4.50;98.20;;;;;;5050365;28;20951;-73
2020/12/08 08:19:53;;;;;;;1.60;1.30;;;4.50;98.20;;;;;;5055035;28;20487;-74
2020/12/08 08:22:19;;;;;;;1.77;1.67;;;4.50;98.20;;;;;;5053694;28;20491;-73
2020/12/08 08:24:46;;;;;;;1.60;1.40;;;4.50;98.20;;;;;;5036704;28;20467;-73
2020/12/08 08:27:12;;;;;;;1.60;1.40;;;4.50;98.20;;;;;;5046599;28;20535;-73
2020/12/08 08:29:39;;;;;;;1.60;1.40;;;4.50;98.20;;;;;;5054582;28;20472;-72
2020/12/08 08:32:05;;;;;;;1.60;1.33;;;4.50;98.20;;;;;;5056113;28;20472;-73
2020/12/08 08:34:32;;;;;;;1.70;1.60;;;4.50;98.20;;;;;;5056442;28;20451;-73
2020/12/08 08:36:59;;;;;;;3.20;3.00;;;4.50;98.20;;;;;;5058847;28;21008;-73
2020/12/08 08:39:26;;;;;;;1.60;1.40;;;4.50;98.20;;;;;;5044857;28;20491;-73
2020/12/08 08:41:53;;;;;;;1.60;1.40;;;4.50;98.20;;;;;;5038102;28;20509;-73
2020/12/08 08:44:20;;;;;;;1.60;1.30;;;4.50;98.20;;;;;;5041689;28;20513;-73
2020/12/08 08:46:47;;;;;;;1.60;1.30;;;4.50;98.20;;;;;;5043039;28;20538;-72
2020/12/08 08:49:14;;;;;;;1.70;1.60;;;4.60;98.20;;;;;;5042487;28;20979;-72
2020/12/08 08:51:42;;;;;;;4.20;4.00;;;4.50;98.20;;;;;;5034605;28;20554;-73
2020/12/08 08:54:09;;;;;;;1.60;1.37;;;4.50;98.20;;;;;;5061059;28;20454;-72
2020/12/08 08:56:36;;;;;;;1.60;1.40;;;4.50;98.20;;;;;;5045168;28;20522;-74
2020/12/08 08:59:02;;;;;;;1.60;1.40;;;4.60;98.20;;;;;;5056621;28;20490;-72
2020/12/08 09:01:29;;;;;;;1.60;1.30;;;4.60;98.20;;;;;;5054408;28;20459;-72
2020/12/08 09:03:55;;;;;;;1.70;1.60;;;4.60;98.20;;;;;;5039410;28;20493;-72
2020/12/08 09:06:22;;;;;;;1.70;1.60;;;4.60;98.20;;;;;;5056852;28;20511;-73
2020/12/08 09:08:48;;;;;;;1.60;1.40;;;4.60;98.20;;;;;;5041641;28;20518;-72
2020/12/08 09:11:15;;;;;;;3.40;2.80;;;4.60;98.20;;;;;;5043957;28;20505;-73
2020/12/08 09:13:42;;;;;;;1.60;1.40;;;4.70;98.20;;;;;;5041125;28;20984;-73
2020/12/08 09:16:08;;;;;;;1.60;1.50;;;4.70;98.20;;;;;;5041443;28;20475;-73
2020/12/08 09:18:35;;;;;;;1.60;1.30;;;4.80;98.20;;;;;;5041179;28;20487;-73
2020/12/08 09:21:01;;;;;;;1.60;1.40;;;4.80;98.20;;;;;;5044078;28;20988;-72
2020/12/08 09:23:28;;;;;;;1.60;1.30;;;4.80;98.20;;;;;;5048290;28;20921;-73
2020/12/08 09:25:55;;;;;;;1.60;1.40;;;4.80;98.20;;;;;;5043699;28;21316;-74
2020/12/08 09:28:22;;;;;;;1.63;1.50;;;4.80;98.20;;;;;;5042573;28;21089;-73
2020/12/08 09:30:50;;;;;;;1.60;1.50;;;4.90;98.20;;;;;;5050946;28;20514;-72
2020/12/08 09:33:17;;;;;;;1.60;1.50;;;4.90;98.20;;;;;;5034291;28;21105;-72
2020/12/08 09:35:43;;;;;;;1.60;1.30;;;4.90;98.20;;;;;;5039347;28;20478;-73
2020/12/08 09:38:10;;;;;;;1.60;1.50;;;4.90;98.20;;;;;;5038960;28;20484;-73
2020/12/08 09:40:38;;;;;;;3.87;3.57;;;4.90;98.20;;;;;;5042262;28;20564;-74
2020/12/08 09:43:05;;;;;;;1.60;1.30;;;5.00;98.20;;;;;;5040184;28;20819;-74
2020/12/08 09:45:35;;;;;;;1.60;1.40;;;5.00;98.20;;;;;;5039112;28;20471;-72
2020/12/08 09:48:02;;;;;;;1.70;1.50;;;5.00;98.20;;;;;;5050417;28;20467;-73
2020/12/08 09:50:28;;;;;;;1.70;1.60;;;5.00;98.20;;;;;;5037534;28;20483;-73
2020/12/08 09:52:55;;;;;;;1.60;1.40;;;5.10;98.20;;;;;;5037789;28;20525;-73
2020/12/08 09:55:21;;;;;;;1.60;1.40;;;5.10;98.20;;;;;;5042438;28;20674;-73
2020/12/08 09:57:48;;;;;;;1.60;1.40;;;5.10;98.20;;;;;;5038584;28;20888;-73
2020/12/08 10:00:14;;;;;;;1.60;1.40;;;5.20;98.20;;;;;;5051532;28;20463;-73
2020/12/08 10:02:41;;;;;;;1.60;1.30;;;5.20;98.20;;;;;;5035101;28;20459;-73
2020/12/08 10:05:08;;;;;;;1.60;1.30;;;5.30;98.20;;;;;;5039552;28;20541;-74
2020/12/08 10:07:34;;;;;;;1.70;1.60;;;5.30;98.20;;;;;;5042112;28;20494;-73
2020/12/08 10:10:01;;;;;;;3.40;3.20;;;5.30;98.20;;;;;;5038278;28;20458;-72
2020/12/08 10:12:27;;;;;;;1.60;1.30;;;5.30;98.20;;;;;;5040777;28;20458;-74
2020/12/08 10:14:54;;;;;;;1.60;1.40;;;5.30;98.20;;;;;;5038892;28;20561;-73
2020/12/08 10:17:20;;;;;;;1.60;1.40;;;5.30;98.20;;;;;;5034689;28;21102;-72
2020/12/08 10:19:48;;;;;;;1.60;1.50;;;5.40;98.20;;;;;;5039355;28;20517;-73
2020/12/08 10:22:14;;;;;;;1.60;1.30;;;5.40;98.20;;;;;;5041599;28;21008;-72
2020/12/08 10:24:41;;;;;;;1.60;1.30;;;5.40;98.20;;;;;;5042201;28;20505;-74
2020/12/08 10:27:07;;;;;;;1.60;1.30;;;5.40;98.20;;;;;;5035820;28;20518;-74
2020/12/08 10:29:34;;;;;;;1.60;1.30;;;5.50;98.20;;;;;;5047535;28;20488;-73
2020/12/08 10:32:00;;;;;;;1.60;1.40;;;5.50;98.20;;;;;;5042822;28;20464;-72
2020/12/08 10:34:27;;;;;;;1.60;1.30;;;5.50;98.20;;;;;;5035469;28;20474;-73
2020/12/08 10:36:54;;;;;;;1.60;1.50;;;5.50;98.20;;;;;;5041910;28;20556;-73
2020/12/08 10:39:20;;;;;;;1.60;1.30;;;5.50;98.20;;;;;;5040212;28;20491;-73
2020/12/08 10:41:47;;;;;;;1.60;1.37;;;5.60;98.20;;;;;;5048859;28;21140;-72
2020/12/08 10:44:16;;;;;;;1.60;1.30;;;5.60;98.20;;;;;;5040654;28;20489;-73
2020/12/08 10:46:42;;;;;;;1.93;1.73;;;5.70;98.20;;;;;;5041367;28;20528;-73
2020/12/08 10:49:09;;;;;;;1.60;1.30;;;5.70;98.20;;;;;;5040709;28;20490;-73
2020/12/08 10:51:35;;;;;;;1.60;1.30;;;5.80;98.20;;;;;;5039304;28;20498;-73
2020/12/08 10:54:03;;;;;;;1.60;1.43;;;5.80;98.20;;;;;;5043948;28;20526;-73
2020/12/08 10:56:29;;;;;;;1.60;1.40;;;5.80;98.20;;;;;;5037267;28;20482;-72
2020/12/08 10:58:55;;;;;;;1.60;1.30;;;5.90;98.20;;;;;;5043927;28;20527;-72
2020/12/08 11:01:23;;;;;;;1.60;1.43;;;6.00;98.20;;;;;;5042505;28;20462;-72
2020/12/08 11:03:50;;;;;;;1.60;1.40;;;6.00;98.20;;;;;;5042207;28;21201;-73
2020/12/08 11:06:21;;;;;;;1.60;1.30;;;6.00;98.20;;;;;;5040336;28;20498;-73
2020/12/08 11:08:49;;;;;;;1.60;1.37;;;6.00;98.20;;;;;;5042394;28;21073;-71
2020/12/08 11:11:22;;;;;;;1.60;1.30;;;6.00;98.20;;;;;;5051134;28;20797;-73
2020/12/08 11:13:48;;;;;;;1.60;1.40;;;6.00;98.20;;;;;;5043397;28;20463;-72
2020/12/08 11:16:15;;;;;;;1.60;1.40;;;6.00;98.20;;;;;;5049402;28;20485;-73
2020/12/08 11:18:41;;;;;;;1.90;1.77;;;6.00;98.20;;;;;;5045638;28;20486;-73
2020/12/08 11:21:08;;;;;;;1.60;1.30;;;6.00;98.20;;;;;;5048792;28;20534;-73
2020/12/08 11:23:35;;;;;;;1.70;1.60;;;6.00;98.20;;;;;;5039864;28;20588;-73
2020/12/08 11:26:01;;;;;;;1.60;1.40;;;6.10;98.20;;;;;;5043144;28;20779;-72
2020/12/08 11:28:29;;;;;;;1.60;1.37;;;6.20;98.20;;;;;;5052597;28;20460;-72
2020/12/08 11:30:56;;;;;;;1.60;1.40;;;6.20;98.20;;;;;;5049042;28;20478;-74
2020/12/08 11:33:23;;;;;;;1.70;1.40;;;6.30;98.20;;;;;;5048227;28;20526;-73
2020/12/08 11:35:50;;;;;;;1.63;1.40;;;6.30;98.20;;;;;;5043480;28;20511;-73
2020/12/08 11:38:16;;;;;;;1.60;1.30;;;6.40;98.20;;;;;;5057369;28;20494;-72
2020/12/08 11:40:43;;;;;;;1.60;1.30;;;6.40;98.20;;;;;;5050773;28;20474;-73
2020/12/08 11:43:09;;;;;;;1.60;1.40;;;6.30;98.20;;;;;;5042901;28;20934;-73
2020/12/08 11:45:37;;;;;;;1.60;1.30;;;6.30;98.20;;;;;;5040502;28;20499;-74
2020/12/08 11:48:03;;;;;;;1.60;1.23;;;6.30;98.20;;;;;;5050808;28;20458;-73
2020/12/08 11:50:29;;;;;;;1.60;1.30;;;6.30;98.20;;;;;;5051111;28;20458;-72
2020/12/08 11:52:56;;;;;;;1.60;1.30;;;6.40;98.20;;;;;;5057803;28;20461;-73
2020/12/08 11:55:22;;;;;;;1.60;1.20;;;6.40;98.20;;;;;;5042227;28;20506;-73
2020/12/08 11:57:49;;;;;;;1.60;1.30;;;6.30;98.20;;;;;;5042076;28;20465;-73
2020/12/08 12:00:16;;;;;;;1.63;1.47;;;6.30;98.20;;;;;;5066903;28;20905;-72
2020/12/08 12:02:43;;;;;;;1.70;1.50;;;6.30;98.20;;;;;;5049904;28;20470;-73
2020/12/08 12:05:10;;;;;;;1.60;1.40;;;6.30;98.20;;;;;;5051314;28;20497;-72
2020/12/08 12:07:36;;;;;;;1.60;1.30;;;6.20;98.20;;;;;;5053340;28;20511;-73
2020/12/08 12:10:04;;;;;;;1.60;1.40;;;6.20;98.20;;;;;;5060460;28;20462;-72
2020/12/08 12:12:30;;;;;;;1.63;1.53;;;6.20;98.20;;;;;;5065241;28;20524;-72
2020/12/08 12:14:57;;;;;;;1.60;1.30;;;6.20;98.20;;;;;;5045034;28;20529;-72
2020/12/08 12:17:23;;;;;;;1.60;1.40;;;6.20;98.20;;;;;;5047343;28;20858;-73
2020/12/08 12:19:51;;;;;;;1.67;1.57;;;6.20;98.20;;;;;;5063505;28;20487;-72
2020/12/08 12:22:17;;;;;;;1.60;1.23;;;6.20;98.20;;;;;;5047309;28;20490;-73
2020/12/08 12:24:43;;;;;;;1.60;1.30;;;6.30;98.20;;;;;;5047765;28;20581;-72
2020/12/08 12:27:10;;;;;;;1.60;1.30;;;6.30;98.20;;;;;;5053040;28;20489;-74
2020/12/08 12:29:36;;;;;;;1.60;1.27;;;6.30;98.10;;;;;;5069908;28;20455;-72
2020/12/08 12:32:03;;;;;;;1.60;1.20;;;6.30;97.90;;;;;;5045176;28;20495;-72
2020/12/08 12:34:29;;;;;;;1.60;1.30;;;6.30;97.50;;;;;;5044474;28;20471;-73
2020/12/08 12:36:57;;;;;;;1.60;1.40;;;6.30;98.10;;;;;;5052582;28;20479;-73
2020/12/08 12:39:24;;;;;;;1.60;1.20;;;6.30;97.60;;;;;;5045141;28;20487;-73
2020/12/08 12:41:50;;;;;;;1.60;1.33;;;6.30;98.00;;;;;;5049494;28;20475;-73
2020/12/08 12:44:17;;;;;;;1.60;1.20;;;6.40;97.80;;;;;;5048936;28;20478;-72
2020/12/08 12:46:43;;;;;;;1.60;1.37;;;6.40;97.70;;;;;;5053561;28;20490;-71
2020/12/08 12:49:10;;;;;;;1.60;1.30;;;6.30;97.40;;;;;;5044488;28;20459;-72
2020/12/08 12:51:36;;;;;;;1.57;1.30;;;6.30;97.90;;;;;;5045972;28;20475;-72
2020/12/08 12:54:04;;;;;;;1.60;1.20;;;6.30;97.70;;;;;;5049188;28;20462;-74
2020/12/08 12:56:30;;;;;;;1.60;1.30;;;6.30;97.90;;;;;;5048740;28;20476;-73